KAIZ/AIZ METAR and TAF weather

Enter ICAO airport designator
Station Type Date Time Source
KAIZ METAR 2019/12/13 21:56 UTC NOAA

KAIZ 132156Z AUTO 18005KT 10SM CLR 12/00 A2982 RMK AO2 SLP098 T01170000


Station Type Date Time Source
KAIZ Decoded METAR 2019/12/13 21:56 UTC NOAA

Kaiser Lake Ozark, Lee C Fine Memorial Airport, MO, United States (KAIZ) 38-06N 092-33W
Dec 13, 2019 - 04:56 PM EST / 2019.12.13 2156 UTC
Wind: from the S (180 degrees) at 6 MPH (5 KT):0
Visibility: 10 mile(s):0
Sky conditions: clear
Temperature: 53.1 F (11.7 C)
Dew Point: 32.0 F (0.0 C)
Relative Humidity: 44%
Pressure (altimeter): 29.82 in. Hg (1009 hPa)
ob: KAIZ 132156Z AUTO 18005KT 10SM CLR 12/00 A2982 RMK AO2 SLP098 T01170000
cycle: 22

Station Type Date Time Source
KAIZ TAF UTC NOAA

Error!

Example: see airport list